Información del aeropuerto LXGB

Información de pista
Pista 09 Longitud 6000 ft Anchura 150 ft
Elevación 10 ft Umbral 302 ft Rumbo 88
Pista 27 Longitud 6000 ft Anchura 150 ft
Elevación 11 ft Umbral 368 ft Rumbo 268
Frecuencias del aeropuerto
Tipo A/D Nombre APP Frecuencia 122.8 MHZ
Tipo OPS Nombre GIB TALKDO Frecuencia 130.4 MHZ
Tipo TWR Nombre TWR Frecuencia 131.2 MHZ
Radioayudas del aeropuerto
Tipo TACAN Nombre Gibraltar Frecuencia 113600 KHZ
Información meteorológica del aeropuerto y NOTAM
ADDS - METARS form results

(2138 UTC 08 August 2022)
Data provider http://aviationweather.gov/metar/data/
 
METAR text: LXGB 082120Z AUTO 20012KT 9999 NCD 25/18 Q1015
Conditions at: LXGB (GIBRALTAR (CIV/M, GI) observed 2120 UTC 08 August 2022
Temperature: 25.0°C (77°F)
Dewpoint: 18.0°C (64°F) [RH = 65%]
Pressure (altimeter): 29.97 inches Hg (1015.0 mb)
Winds: from the SSW (200 degrees) at 14 MPH (12 knots; 6.2 m/s)
Visibility: 6 or more miles (10+ km)
Ceiling: at least 12,000 feet AGL
Clouds: sky clear below 12,000 feet AGL
Weather: no significant weather observed at this time

METAR text: LXGB 082050Z AUTO 19015KT 9999 NCD 25/18 Q1014
Conditions at: LXGB (GIBRALTAR (CIV/M, GI) observed 2050 UTC 08 August 2022
Temperature: 25.0°C (77°F)
Dewpoint: 18.0°C (64°F) [RH = 65%]
Pressure (altimeter): 29.94 inches Hg (1014.0 mb)
Winds: from the S (190 degrees) at 17 MPH (15 knots; 7.7 m/s)
Visibility: 6 or more miles (10+ km)
Ceiling: at least 12,000 feet AGL
Clouds: sky clear below 12,000 feet AGL
Weather: no significant weather observed at this time

Forecast for: LXGB (GIBRALTAR (CIV/M, GI)
Text: TAF LXGB 081641Z 0818/0822 20015KT CAVOK 520002
Forecast period: 1800 to 2200 UTC 08 August 2022
Forecast type: FROM: standard forecast or significant change
Winds: from the SSW (200 degrees) at 17 MPH (15 knots; 7.7 m/s)
Visibility: 6 or more miles (10+ km)
Ceiling: unknown
Clouds: missing
Weather: NSW  (no significant weather)
Text: BECMG 0818/0820 24008KT 50////
Forecast period: 1800 to 2200 UTC 08 August 2022
Forecast type: BECOMING: Conditions expected to become as follows by 2000 UTC 08 August 2022
Winds: from the WSW (240 degrees) at 9 MPH (8 knots; 4.1 m/s)
Visibility: 6 or more miles (10+ km)
Ceiling: unknown
Clouds: missing
Weather: NSW  (no significant weather)